ESSB/BMA METAR and TAF weather

Enter ICAO airport designator
Station Type Date Time Source
ESSB METAR 2018/10/22 16:50 UTC NOAA

ESSB 221650Z 25009KT CAVOK 09/M00 Q1011


Station Type Date Time Source
ESSB Decoded METAR 2018/10/22 16:50 UTC NOAA

Stockholm / Bromma, Sweden (ESSB) 59-21N 017-57E 14M
Oct 22, 2018 - 12:50 PM EDT / 2018.10.22 1650 UTC
Wind: from the WSW (250 degrees) at 10 MPH (9 KT):0
Visibility: greater than 7 mile(s):0
Temperature: 48 F (9 C)
Dew Point: 32 F (0 C)
Relative Humidity: 53%
Pressure (altimeter): 29.85 in. Hg (1011 hPa)
ob: ESSB 221650Z 25009KT CAVOK 09/M00 Q1011
cycle: 17

Station Type Date Time Source
ESSB TAF 2017/03/27 06:35 UTC NOAA

TAF ESSB 270530Z 2706/2724 27008KT CAVOK
BECMG 2710/2713 29015G25KT


Example: see airport list